createdAt,value
2023-04-07T00:00:04.980Z,101643.59
2023-04-07T00:03:09.039Z,101631.47
2023-04-07T00:06:12.631Z,101630.59
2023-04-07T00:09:16.231Z,101628.88
2023-04-07T00:12:19.684Z,101629.75
2023-04-07T00:15:24.620Z,101637.50
2023-04-07T00:18:28.125Z,101631.47
2023-04-07T00:21:31.603Z,101636.66
2023-04-07T00:24:35.088Z,101628.88
2023-04-07T00:27:38.713Z,101628.84
2023-04-07T00:30:43.585Z,101632.28
2023-04-07T00:33:48.506Z,101633.16
2023-04-07T00:36:52.567Z,101628.78
2023-04-07T00:39:57.237Z,101633.94
2023-04-07T00:43:00.786Z,101641.75
2023-04-07T00:46:05.958Z,101640.88
2023-04-07T00:49:11.436Z,101638.28
2023-04-07T00:52:17.132Z,101635.69
2023-04-07T00:55:20.791Z,101642.59
2023-04-07T00:58:24.226Z,101639.97
2023-04-07T01:01:41.029Z,101640.88
2023-04-07T01:04:52.650Z,101635.69
2023-04-07T01:08:14.904Z,101640.84
2023-04-07T01:11:26.053Z,101637.34
2023-04-07T01:14:38.606Z,101646.03
2023-04-07T01:17:49.565Z,101637.34
2023-04-07T01:21:01.947Z,101631.28
2023-04-07T01:24:43.639Z,101631.28
2023-04-07T01:28:11.835Z,101632.97
2023-04-07T01:31:18.481Z,101628.69
2023-04-07T01:34:26.287Z,101625.22
2023-04-07T01:37:30.937Z,101632.13
2023-04-07T01:40:36.952Z,101638.22
2023-04-07T01:43:43.903Z,101632.97
2023-04-07T01:46:51.710Z,101632.97
2023-04-07T01:49:57.638Z,101634.72
2023-04-07T01:53:01.743Z,101639.03
2023-04-07T01:56:06.360Z,101628.63
2023-04-07T01:59:09.811Z,101631.22
2023-04-07T02:02:14.937Z,101625.13
2023-04-07T02:05:23.864Z,101631.16
2023-04-07T02:08:31.161Z,101632.88
2023-04-07T02:11:38.713Z,101636.31
2023-04-07T02:14:43.156Z,101633.66
2023-04-07T02:17:53.115Z,101628.44
2023-04-07T02:20:58.461Z,101631.84
2023-04-07T02:24:03.174Z,101635.31
2023-04-07T02:27:06.621Z,101625.78
2023-04-07T02:30:11.640Z,101630.09
2023-04-07T02:33:16.652Z,101636.97
2023-04-07T02:36:20.402Z,101636.06
2023-04-07T02:39:23.889Z,101643.84
2023-04-07T02:42:27.357Z,101640.38
2023-04-07T02:45:31.028Z,101640.38
2023-04-07T02:48:35.905Z,101642.06
2023-04-07T02:51:39.395Z,101646.41
2023-04-07T02:54:42.859Z,101647.22
2023-04-07T02:57:46.521Z,101642.03
2023-04-07T03:00:50.929Z,101642.91
2023-04-07T03:03:56.281Z,101641.13
2023-04-07T03:07:00.046Z,101647.19
2023-04-07T03:10:03.641Z,101646.28
2023-04-07T03:13:08.382Z,101643.69
2023-04-07T03:16:13.048Z,101646.28
2023-04-07T03:19:17.958Z,101646.25
2023-04-07T03:22:21.589Z,101642.75
2023-04-07T03:25:25.053Z,101644.47
2023-04-07T03:28:28.504Z,101644.41
2023-04-07T03:31:32.066Z,101645.28
2023-04-07T03:34:36.956Z,101641.78
2023-04-07T03:37:40.481Z,101644.34
2023-04-07T03:40:43.935Z,101646.91
2023-04-07T03:43:47.394Z,101646.88
2023-04-07T03:46:51.273Z,101655.47
2023-04-07T03:49:56.236Z,101650.28
2023-04-07T03:52:59.676Z,101646.78
2023-04-07T03:56:03.378Z,101652.03
2023-04-07T03:59:07.522Z,101649.34
2023-04-07T04:02:11.170Z,101657.13
2023-04-07T04:05:16.332Z,101660.47
2023-04-07T04:08:19.914Z,101661.34
2023-04-07T04:11:23.638Z,101671.63
2023-04-07T04:14:27.156Z,101674.19
2023-04-07T04:17:31.026Z,101684.53
2023-04-07T04:20:37.410Z,101681.09
2023-04-07T04:23:40.988Z,101678.44
2023-04-07T04:26:44.485Z,101682.75
2023-04-07T04:29:48.905Z,101679.25
2023-04-07T04:32:52.575Z,101684.41
2023-04-07T04:35:57.550Z,101683.56
2023-04-07T04:39:00.979Z,101684.38
2023-04-07T04:42:04.935Z,101689.56
2023-04-07T04:45:10.188Z,101700.75
2023-04-07T04:48:13.692Z,101701.63
2023-04-07T04:51:18.562Z,101704.22
2023-04-07T04:54:22.113Z,101713.69
2023-04-07T04:57:25.659Z,101712.81
2023-04-07T05:00:29.351Z,101717.19
2023-04-07T05:03:33.128Z,101713.72
2023-04-07T05:06:38.161Z,101719.81
2023-04-07T05:09:41.691Z,101723.25
2023-04-07T05:12:45.557Z,101724.19
2023-04-07T05:15:49.402Z,101733.78
2023-04-07T05:18:52.964Z,101738.03
2023-04-07T05:21:57.948Z,101736.34
2023-04-07T05:25:01.616Z,101738.97
2023-04-07T05:28:05.561Z,101733.91
2023-04-07T05:31:09.182Z,101734.78
2023-04-07T05:34:13.114Z,101729.72
2023-04-07T05:37:17.944Z,101740.13
2023-04-07T05:40:21.742Z,101742.84
2023-04-07T05:43:25.308Z,101743.75
2023-04-07T05:46:30.275Z,101749.03
2023-04-07T05:49:33.755Z,101745.66
2023-04-07T05:52:38.622Z,101750.88
2023-04-07T05:55:44.777Z,101748.44
2023-04-07T05:58:48.356Z,101759.69
2023-04-07T06:01:52.023Z,101760.66
2023-04-07T06:04:56.247Z,101763.47
2023-04-07T06:08:01.216Z,101765.28
2023-04-07T06:11:05.383Z,101766.25
2023-04-07T06:14:09.190Z,101769.78
2023-04-07T06:17:12.878Z,101772.47
2023-04-07T06:20:16.559Z,101771.72
2023-04-07T06:23:21.691Z,101776.06
2023-04-07T06:26:25.350Z,101781.34
2023-04-07T06:29:28.991Z,101775.31
2023-04-07T06:32:33.472Z,101791.81
2023-04-07T06:35:37.265Z,101793.50
2023-04-07T06:38:43.827Z,101790.19
2023-04-07T06:41:47.460Z,101796.28
2023-04-07T06:44:50.994Z,101789.38
2023-04-07T06:47:54.722Z,101795.47
2023-04-07T06:50:58.392Z,101801.47
2023-04-07T06:54:04.504Z,101797.16
2023-04-07T06:57:12.052Z,101800.69
2023-04-07T07:00:16.615Z,101807.63
2023-04-07T07:03:20.792Z,101805.91
2023-04-07T07:06:25.378Z,101797.19
2023-04-07T07:09:31.619Z,101803.16
2023-04-07T07:12:35.158Z,101809.28
2023-04-07T07:15:38.743Z,101810.09
2023-04-07T07:18:42.252Z,101798.75
2023-04-07T07:21:46.084Z,101805.63
2023-04-07T07:24:51.448Z,101809.94
2023-04-07T07:27:55.000Z,101816.63
2023-04-07T07:30:58.534Z,101818.28
2023-04-07T07:34:02.174Z,101825.19
2023-04-07T07:37:05.672Z,101828.75
2023-04-07T07:40:11.495Z,101829.59
2023-04-07T07:43:18.089Z,101829.66
2023-04-07T07:46:22.317Z,101837.28
2023-04-07T07:49:26.126Z,101843.91
2023-04-07T07:52:29.642Z,101841.16
2023-04-07T07:55:34.740Z,101839.91
2023-04-07T07:58:38.483Z,101845.16
2023-04-07T08:01:42.062Z,101839.34
2023-04-07T08:04:46.013Z,101846.16
2023-04-07T08:07:50.438Z,101843.94
2023-04-07T08:10:56.003Z,101846.72
2023-04-07T08:13:59.555Z,101857.03
2023-04-07T08:17:03.248Z,101851.16
2023-04-07T08:20:10.427Z,101848.25
2023-04-07T08:23:14.106Z,101848.84
2023-04-07T08:26:19.195Z,101839.41
2023-04-07T08:29:22.690Z,101850.25
2023-04-07T08:32:26.340Z,101844.63
2023-04-07T08:35:29.982Z,101846.41
2023-04-07T08:38:33.524Z,101851.94
2023-04-07T08:41:40.977Z,101865.22
2023-04-07T08:44:47.058Z,101857.84
2023-04-07T08:47:56.834Z,101850.72
2023-04-07T08:51:05.835Z,101864.84
2023-04-07T08:54:13.392Z,101857.75
2023-04-07T08:57:19.581Z,101861.69
2023-04-07T09:00:23.315Z,101854.88
2023-04-07T09:03:28.876Z,101859.88
2023-04-07T09:06:33.241Z,101857.81
2023-04-07T09:09:36.883Z,101862.00
2023-04-07T09:12:42.073Z,101861.22
2023-04-07T09:15:46.155Z,101869.38
2023-04-07T09:18:49.796Z,101870.06
2023-04-07T09:21:54.533Z,101871.22
2023-04-07T09:25:13.042Z,101877.59
2023-04-07T09:28:17.968Z,101870.88
2023-04-07T09:31:22.360Z,101876.25
2023-04-07T09:34:28.838Z,101870.59
2023-04-07T09:37:32.569Z,101860.81
2023-04-07T09:40:37.417Z,101865.25
2023-04-07T09:43:46.101Z,101864.34
2023-04-07T09:46:52.750Z,101871.13
2023-04-07T09:49:59.452Z,101872.28
2023-04-07T09:53:04.745Z,101864.88
2023-04-07T09:56:10.002Z,101868.06
2023-04-07T09:59:18.434Z,101871.00
2023-04-07T10:02:23.303Z,101864.94
2023-04-07T10:05:28.024Z,101864.31
2023-04-07T10:08:35.180Z,101861.97
2023-04-07T10:11:39.249Z,101859.22
2023-04-07T10:14:47.205Z,101859.66
2023-04-07T10:17:52.270Z,101860.16
2023-04-07T10:20:57.953Z,101860.75
2023-04-07T10:24:20.194Z,101859.41
2023-04-07T10:27:35.253Z,101868.06
2023-04-07T10:30:42.098Z,101863.78
2023-04-07T10:33:52.368Z,101873.84
2023-04-07T10:37:14.427Z,101869.31
2023-04-07T10:40:31.401Z,101871.56
2023-04-07T10:43:45.024Z,101869.84
2023-04-07T10:47:07.751Z,101871.34
2023-04-07T10:50:22.859Z,101867.53
2023-04-07T10:53:26.366Z,101871.47
2023-04-07T10:57:21.312Z,101884.25
2023-04-07T11:00:25.514Z,101867.50
2023-04-07T11:03:32.596Z,101869.72
2023-04-07T11:06:36.286Z,101872.84
2023-04-07T11:09:39.918Z,101877.47
2023-04-07T11:12:43.857Z,101880.47
2023-04-07T11:15:52.259Z,101883.78
2023-04-07T11:18:59.138Z,101880.63
2023-04-07T11:25:27.779Z,101878.16
2023-04-07T11:28:32.538Z,101887.09
2023-04-07T11:31:36.416Z,101883.41
2023-04-07T11:34:41.777Z,101877.06
2023-04-07T11:37:45.736Z,101881.09
2023-04-07T11:40:49.644Z,101887.59
2023-04-07T11:44:07.471Z,101884.03
2023-04-07T11:47:10.971Z,101895.91
2023-04-07T11:50:16.122Z,101888.13
2023-04-07T11:53:30.576Z,101901.19
2023-04-07T11:56:46.138Z,101889.97
2023-04-07T11:59:49.847Z,101887.81
2023-04-07T12:02:53.720Z,101897.88
2023-04-07T12:05:58.786Z,101891.78
2023-04-07T12:09:03.654Z,101887.88
2023-04-07T12:12:10.539Z,101893.00
2023-04-07T12:15:14.339Z,101884.31
2023-04-07T12:18:19.189Z,101884.16
2023-04-07T12:21:24.481Z,101887.63
2023-04-07T12:24:28.661Z,101887.81
2023-04-07T12:27:42.777Z,101882.69
2023-04-07T12:30:47.441Z,101886.38
2023-04-07T12:33:51.533Z,101895.22
2023-04-07T12:36:56.561Z,101887.78
2023-04-07T12:40:00.719Z,101883.28
2023-04-07T12:43:04.330Z,101889.59
2023-04-07T12:46:07.961Z,101887.41
2023-04-07T12:49:11.688Z,101894.63
2023-04-07T12:52:16.940Z,101893.97
2023-04-07T12:55:20.632Z,101901.69
2023-04-07T12:58:24.593Z,101910.06
2023-04-07T13:01:28.358Z,101903.75
2023-04-07T13:04:32.327Z,101897.84
2023-04-07T13:07:37.991Z,101898.22
2023-04-07T13:10:41.561Z,101898.59
2023-04-07T13:13:45.494Z,101900.47
2023-04-07T13:16:49.631Z,101891.91
2023-04-07T13:19:53.230Z,101887.22
2023-04-07T13:23:07.865Z,101890.66
2023-04-07T13:26:13.101Z,101879.50
2023-04-07T13:29:17.534Z,101886.03
2023-04-07T13:32:21.145Z,101892.09
2023-04-07T13:35:26.031Z,101895.63
2023-04-07T13:38:31.009Z,101889.56
2023-04-07T13:41:34.720Z,101890.97
2023-04-07T13:44:39.673Z,101897.31
2023-04-07T13:47:43.317Z,101894.53
2023-04-07T13:50:46.990Z,101898.88
2023-04-07T13:53:52.027Z,101891.72
2023-04-07T13:56:55.682Z,101901.41
2023-04-07T13:59:59.275Z,101893.13
2023-04-07T14:03:04.399Z,101895.16
2023-04-07T14:06:08.138Z,101889.72
2023-04-07T14:09:12.935Z,101886.47
2023-04-07T14:12:17.224Z,101891.81
2023-04-07T14:15:20.703Z,101886.97
2023-04-07T14:18:25.138Z,101888.66
2023-04-07T14:21:28.696Z,101882.56
2023-04-07T14:24:33.773Z,101886.94
2023-04-07T14:27:37.281Z,101890.06
2023-04-07T14:30:40.817Z,101891.91
2023-04-07T14:33:44.619Z,101894.19
2023-04-07T14:36:55.742Z,101894.19
2023-04-07T14:40:03.089Z,101896.81
2023-04-07T14:43:07.920Z,101898.13
2023-04-07T14:46:12.546Z,101897.63
2023-04-07T14:49:16.448Z,101900.41
2023-04-07T14:52:20.654Z,101905.25
2023-04-07T14:55:26.232Z,101897.56
2023-04-07T14:58:29.791Z,101896.47
2023-04-07T15:01:33.534Z,101904.97
2023-04-07T15:04:37.246Z,101906.31
2023-04-07T15:07:40.832Z,101906.34
2023-04-07T15:10:46.032Z,101915.44
2023-04-07T15:13:50.274Z,101915.22
2023-04-07T15:16:54.205Z,101913.41
2023-04-07T15:19:57.825Z,101918.53
2023-04-07T15:23:01.716Z,101911.44
2023-04-07T15:26:07.157Z,101921.63
2023-04-07T15:29:11.772Z,101920.47
2023-04-07T15:32:15.401Z,101922.22
2023-04-07T15:35:20.237Z,101916.78
2023-04-07T15:38:23.787Z,101929.25
2023-04-07T15:41:28.759Z,101932.72
2023-04-07T15:44:39.418Z,101927.97
2023-04-07T15:47:44.164Z,101928.69
2023-04-07T15:50:48.029Z,101935.53
2023-04-07T15:53:51.840Z,101940.88
2023-04-07T15:56:56.737Z,101943.00
2023-04-07T16:00:00.305Z,101943.25
2023-04-07T16:03:04.158Z,101944.91
2023-04-07T16:06:07.843Z,101940.44
2023-04-07T16:09:11.530Z,101948.06
2023-04-07T16:12:16.646Z,101948.69
2023-04-07T16:15:41.073Z,101944.50
2023-04-07T16:18:45.188Z,101944.78
2023-04-07T16:21:48.658Z,101950.94
2023-04-07T16:24:52.213Z,101950.66
2023-04-07T16:27:58.329Z,101956.50
2023-04-07T16:31:02.588Z,101959.22
2023-04-07T16:34:06.216Z,101964.78
2023-04-07T16:37:09.689Z,101955.09
2023-04-07T16:40:14.507Z,101954.44
2023-04-07T16:43:19.734Z,101962.56
2023-04-07T16:46:25.969Z,101965.38
2023-04-07T16:49:29.863Z,101973.63
2023-04-07T16:52:33.923Z,101973.81
2023-04-07T16:55:37.717Z,101978.13
2023-04-07T16:58:42.720Z,101986.19
2023-04-07T17:01:46.247Z,101987.38
2023-04-07T17:04:49.972Z,101993.66
2023-04-07T17:07:54.344Z,101993.81
2023-04-07T17:10:59.247Z,101997.25
2023-04-07T17:14:04.197Z,102001.78
2023-04-07T17:17:07.792Z,102001.81
2023-04-07T17:20:13.391Z,102006.56
2023-04-07T17:23:17.630Z,102004.88
2023-04-07T17:26:21.279Z,102012.09
2023-04-07T17:29:29.230Z,102016.53
2023-04-07T17:32:32.842Z,102016.59
2023-04-07T17:35:36.909Z,102028.28
2023-04-07T17:38:40.461Z,102025.78
2023-04-07T17:41:43.968Z,102036.28
2023-04-07T17:44:52.761Z,102038.31
2023-04-07T17:47:56.397Z,102046.31
2023-04-07T17:51:00.123Z,102059.13
2023-04-07T17:54:03.767Z,102061.91
2023-04-07T17:57:08.363Z,102064.66
2023-04-07T18:00:14.297Z,102078.00
2023-04-07T18:03:19.246Z,102084.19
2023-04-07T18:06:22.905Z,102091.22
2023-04-07T18:09:26.800Z,102092.31
2023-04-07T18:12:31.956Z,102096.75
2023-04-07T18:15:37.213Z,102103.13
2023-04-07T18:18:40.824Z,102112.78
2023-04-07T18:21:44.452Z,102114.59
2023-04-07T18:24:48.499Z,102112.91
2023-04-07T18:27:52.328Z,102131.28
2023-04-07T18:31:06.199Z,102123.53
2023-04-07T18:34:10.891Z,102146.28
2023-04-07T18:37:14.988Z,102142.81
2023-04-07T18:40:18.995Z,102146.31
2023-04-07T18:43:22.721Z,102161.91
2023-04-07T18:46:28.413Z,102164.69
2023-04-07T18:49:32.146Z,102172.53
2023-04-07T18:52:35.852Z,102178.69
2023-04-07T18:55:39.769Z,102186.50
2023-04-07T18:58:46.094Z,102183.06
2023-04-07T19:01:52.221Z,102195.28
2023-04-07T19:04:56.177Z,102192.72
2023-04-07T19:08:00.402Z,102197.06
2023-04-07T19:11:05.294Z,102204.06
2023-04-07T19:14:08.812Z,102210.16
2023-04-07T19:17:13.792Z,102204.94
2023-04-07T19:20:17.380Z,102210.19
2023-04-07T19:23:21.275Z,102217.16
2023-04-07T19:26:25.017Z,102220.66
2023-04-07T19:29:28.560Z,102218.91
2023-04-07T19:32:33.963Z,102231.97
2023-04-07T19:35:39.145Z,102232.84
2023-04-07T19:38:42.732Z,102243.25
2023-04-07T19:41:46.464Z,102246.72
2023-04-07T19:44:50.380Z,102244.97
2023-04-07T19:47:58.140Z,102250.19
2023-04-07T19:51:01.867Z,102264.97
2023-04-07T19:54:05.403Z,102249.28
2023-04-07T19:57:08.992Z,102270.97
2023-04-07T20:00:13.950Z,102271.00
2023-04-07T20:03:19.705Z,102270.94
2023-04-07T20:06:27.584Z,102263.97
2023-04-07T20:09:31.075Z,102265.66
2023-04-07T20:12:34.601Z,102268.22
2023-04-07T20:15:38.130Z,102274.28
2023-04-07T20:18:42.992Z,102269.88
2023-04-07T20:21:46.677Z,102275.84
2023-04-07T20:24:50.472Z,102280.16
2023-04-07T20:27:53.981Z,102288.03
2023-04-07T20:30:57.465Z,102289.72
2023-04-07T20:34:03.506Z,102297.50
2023-04-07T20:37:07.273Z,102308.78
2023-04-07T20:40:12.900Z,102303.50
2023-04-07T20:43:18.244Z,102305.22
2023-04-07T20:46:22.141Z,102314.75
2023-04-07T20:49:27.082Z,102318.13
2023-04-07T20:52:30.644Z,102315.47
2023-04-07T20:55:35.669Z,102323.25
2023-04-07T20:58:39.248Z,102317.97
2023-04-07T21:01:42.781Z,102324.06
2023-04-07T21:04:48.006Z,102322.28
2023-04-07T21:07:51.448Z,102320.63
2023-04-07T21:10:55.875Z,102327.59
2023-04-07T21:13:59.364Z,102328.28
2023-04-07T21:17:03.048Z,102330.06
2023-04-07T21:20:10.157Z,102324.88
2023-04-07T21:23:13.734Z,102330.03
2023-04-07T21:26:17.360Z,102324.78
2023-04-07T21:29:22.805Z,102323.97
2023-04-07T21:32:26.700Z,102333.47
2023-04-07T21:35:31.729Z,102336.06
2023-04-07T21:38:35.263Z,102337.75
2023-04-07T21:41:38.883Z,102331.78
2023-04-07T21:44:42.698Z,102340.47
2023-04-07T21:47:46.610Z,102341.34
2023-04-07T21:50:52.628Z,102344.00
2023-04-07T21:53:56.361Z,102341.41
2023-04-07T21:57:01.072Z,102340.50
2023-04-07T22:00:05.247Z,102342.38
2023-04-07T22:03:08.870Z,102334.59
2023-04-07T22:06:14.236Z,102336.38
2023-04-07T22:09:17.966Z,102333.78
2023-04-07T22:12:21.474Z,102333.78
2023-04-07T22:15:25.006Z,102339.91
2023-04-07T22:18:28.528Z,102339.94
2023-04-07T22:21:33.494Z,102344.22
2023-04-07T22:24:36.971Z,102351.16
2023-04-07T22:27:40.746Z,102343.38
2023-04-07T22:30:44.331Z,102350.31
2023-04-07T22:33:48.087Z,102361.63
2023-04-07T22:36:52.907Z,102349.47
2023-04-07T22:39:56.412Z,102351.28
2023-04-07T22:42:59.917Z,102353.00
2023-04-07T22:46:03.606Z,102354.75
2023-04-07T22:49:07.488Z,102358.19
2023-04-07T22:52:12.397Z,102356.50
2023-04-07T22:55:16.421Z,102363.41
2023-04-07T22:58:20.045Z,102360.78
2023-04-07T23:01:23.605Z,102361.69
2023-04-07T23:04:27.319Z,102359.09
2023-04-07T23:07:32.393Z,102354.72
2023-04-07T23:10:36.249Z,102357.31
2023-04-07T23:13:39.697Z,102354.75
2023-04-07T23:16:43.380Z,102365.19
2023-04-07T23:19:47.083Z,102369.50
2023-04-07T23:22:52.023Z,102370.34
2023-04-07T23:25:55.746Z,102372.16
2023-04-07T23:28:59.285Z,102364.34
2023-04-07T23:32:03.144Z,102366.91
2023-04-07T23:35:07.699Z,102367.75
2023-04-07T23:38:12.605Z,102363.41
2023-04-07T23:41:16.369Z,102365.94
2023-04-07T23:44:19.924Z,102371.22
2023-04-07T23:47:23.522Z,102370.25
2023-04-07T23:50:27.915Z,102374.66
2023-04-07T23:53:32.824Z,102367.66
2023-04-07T23:56:36.740Z,102365.16
2023-04-07T23:59:40.292Z,102366.84
